sensor_id;sensor_type;location;lat;lon;timestamp;pressure;altitude;pressure_sealevel;temperature;humidity
76297;BME280;65104;52.994;6.552;2023-08-30T00:00:37;100805.78;;;12.58;100.00
76297;BME280;65104;52.994;6.552;2023-08-30T00:03:02;100804.09;;;12.63;100.00
76297;BME280;65104;52.994;6.552;2023-08-30T00:05:28;100810.09;;;12.63;100.00
76297;BME280;65104;52.994;6.552;2023-08-30T00:07:54;100809.25;;;12.63;100.00
76297;BME280;65104;52.994;6.552;2023-08-30T00:10:19;100805.81;;;12.62;100.00
76297;BME280;65104;52.994;6.552;2023-08-30T00:12:44;100803.22;;;12.59;100.00
76297;BME280;65104;52.994;6.552;2023-08-30T00:15:10;100800.56;;;12.55;100.00
76297;BME280;65104;52.994;6.552;2023-08-30T00:17:35;100797.13;;;12.51;100.00
76297;BME280;65104;52.994;6.552;2023-08-30T00:20:01;100800.53;;;12.49;100.00
76297;BME280;65104;52.994;6.552;2023-08-30T00:22:26;100796.25;;;12.49;100.00
76297;BME280;65104;52.994;6.552;2023-08-30T00:24:53;100790.16;;;12.43;100.00
76297;BME280;65104;52.994;6.552;2023-08-30T00:27:18;100791.88;;;12.40;100.00
76297;BME280;65104;52.994;6.552;2023-08-30T00:29:45;100794.47;;;12.42;100.00
76297;BME280;65104;52.994;6.552;2023-08-30T00:32:11;100797.91;;;12.43;100.00
76297;BME280;65104;52.994;6.552;2023-08-30T00:34:36;100791.88;;;12.40;100.00
76297;BME280;65104;52.994;6.552;2023-08-30T00:37:02;100802.22;;;12.47;100.00
76297;BME280;65104;52.994;6.552;2023-08-30T00:39:27;100792.75;;;12.43;100.00
76297;BME280;65104;52.994;6.552;2023-08-30T00:41:53;100793.59;;;12.45;100.00
76297;BME280;65104;52.994;6.552;2023-08-30T00:44:18;100801.38;;;12.48;100.00
76297;BME280;65104;52.994;6.552;2023-08-30T00:46:44;100789.31;;;12.42;100.00
76297;BME280;65104;52.994;6.552;2023-08-30T00:49:09;100787.56;;;12.39;100.00
76297;BME280;65104;52.994;6.552;2023-08-30T00:51:35;100784.94;;;12.36;100.00
76297;BME280;65104;52.994;6.552;2023-08-30T00:54:01;100784.03;;;12.31;100.00
76297;BME280;65104;52.994;6.552;2023-08-30T00:56:27;100787.47;;;12.30;100.00
76297;BME280;65104;52.994;6.552;2023-08-30T00:58:54;100781.41;;;12.25;100.00
76297;BME280;65104;52.994;6.552;2023-08-30T01:01:20;100789.97;;;12.24;100.00
76297;BME280;65104;52.994;6.552;2023-08-30T01:03:46;100786.47;;;12.19;100.00
76297;BME280;65104;52.994;6.552;2023-08-30T01:06:11;100782.19;;;12.17;100.00
76297;BME280;65104;52.994;6.552;2023-08-30T01:08:38;100785.59;;;12.16;100.00
76297;BME280;65104;52.994;6.552;2023-08-30T01:11:22;100777.00;;;12.15;100.00
76297;BME280;65104;52.994;6.552;2023-08-30T01:14:21;100781.31;;;12.16;100.00
76297;BME280;65104;52.994;6.552;2023-08-30T01:16:48;100772.69;;;12.14;100.00
76297;BME280;65104;52.994;6.552;2023-08-30T01:19:34;100775.31;;;12.20;100.00
76297;BME280;65104;52.994;6.552;2023-08-30T01:25:09;100774.53;;;12.24;100.00
76297;BME280;65104;52.994;6.552;2023-08-30T01:27:38;100769.38;;;12.24;100.00
76297;BME280;65104;52.994;6.552;2023-08-30T01:30:06;100763.31;;;12.21;100.00
76297;BME280;65104;52.994;6.552;2023-08-30T01:32:34;100772.72;;;12.17;100.00
76297;BME280;65104;52.994;6.552;2023-08-30T01:35:01;100771.81;;;12.14;100.00
76297;BME280;65104;52.994;6.552;2023-08-30T01:37:27;100773.50;;;12.12;100.00
76297;BME280;65104;52.994;6.552;2023-08-30T01:39:54;100766.63;;;12.08;100.00
76297;BME280;65104;52.994;6.552;2023-08-30T01:42:22;100766.56;;;12.05;100.00
76297;BME280;65104;52.994;6.552;2023-08-30T01:44:50;100759.63;;;11.99;100.00
76297;BME280;65104;52.994;6.552;2023-08-30T01:47:17;100766.50;;;11.97;100.00
76297;BME280;65104;52.994;6.552;2023-08-30T01:49:44;100772.50;;;11.97;100.00
76297;BME280;65104;52.994;6.552;2023-08-30T01:52:10;100771.59;;;11.94;100.00
76297;BME280;65104;52.994;6.552;2023-08-30T01:54:37;100770.75;;;11.95;100.00
76297;BME280;65104;52.994;6.552;2023-08-30T01:57:04;100758.69;;;11.92;100.00
76297;BME280;65104;52.994;6.552;2023-08-30T01:59:29;100746.72;;;11.94;100.00
76297;BME280;65104;52.994;6.552;2023-08-30T02:01:55;100750.19;;;11.96;100.00
76297;BME280;65104;52.994;6.552;2023-08-30T02:04:21;100739.81;;;11.92;100.00
76297;BME280;65104;52.994;6.552;2023-08-30T02:07:01;100745.84;;;11.92;100.00
76297;BME280;65104;52.994;6.552;2023-08-30T02:09:31;100743.28;;;11.94;100.00
76297;BME280;65104;52.994;6.552;2023-08-30T02:12:04;100738.97;;;11.93;100.00
76297;BME280;65104;52.994;6.552;2023-08-30T02:14:32;100736.41;;;11.90;100.00
76297;BME280;65104;52.994;6.552;2023-08-30T02:16:58;100743.19;;;11.86;100.00
76297;BME280;65104;52.994;6.552;2023-08-30T02:19:24;100733.72;;;11.84;100.00
76297;BME280;65104;52.994;6.552;2023-08-30T02:21:50;100734.53;;;11.81;100.00
76297;BME280;65104;52.994;6.552;2023-08-30T02:24:15;100737.09;;;11.78;100.00
76297;BME280;65104;52.994;6.552;2023-08-30T02:26:41;100731.97;;;11.80;100.00
76297;BME280;65104;52.994;6.552;2023-08-30T02:29:06;100733.69;;;11.79;100.00
76297;BME280;65104;52.994;6.552;2023-08-30T02:31:33;100728.53;;;11.79;100.00
76297;BME280;65104;52.994;6.552;2023-08-30T02:33:58;100739.69;;;11.80;100.00
76297;BME280;65104;52.994;6.552;2023-08-30T02:36:24;100738.84;;;11.82;100.00
76297;BME280;65104;52.994;6.552;2023-08-30T02:38:49;100738.03;;;11.85;100.00
76297;BME280;65104;52.994;6.552;2023-08-30T02:41:15;100730.34;;;11.86;100.00
76297;BME280;65104;52.994;6.552;2023-08-30T02:43:40;100733.81;;;11.90;100.00
76297;BME280;65104;52.994;6.552;2023-08-30T02:46:05;100732.13;;;11.93;100.00
76297;BME280;65104;52.994;6.552;2023-08-30T02:48:34;100717.56;;;11.94;100.00
76297;BME280;65104;52.994;6.552;2023-08-30T02:50:59;100722.75;;;11.97;100.00
76297;BME280;65104;52.994;6.552;2023-08-30T02:53:25;100713.31;;;11.97;100.00
76297;BME280;65104;52.994;6.552;2023-08-30T02:55:50;100710.72;;;11.99;100.00
76297;BME280;65104;52.994;6.552;2023-08-30T02:58:15;100716.75;;;11.99;100.00
76297;BME280;65104;52.994;6.552;2023-08-30T03:00:41;100707.38;;;12.03;100.00
76297;BME280;65104;52.994;6.552;2023-08-30T03:03:06;100708.19;;;12.00;100.00
76297;BME280;65104;52.994;6.552;2023-08-30T03:05:32;100699.56;;;11.95;100.00
76297;BME280;65104;52.994;6.552;2023-08-30T03:07:57;100689.25;;;11.94;100.00
76297;BME280;65104;52.994;6.552;2023-08-30T03:10:23;100691.81;;;11.94;100.00
76297;BME280;65104;52.994;6.552;2023-08-30T03:12:48;100698.63;;;11.90;100.00
76297;BME280;65104;52.994;6.552;2023-08-30T03:15:13;100702.06;;;11.88;100.00
76297;BME280;65104;52.994;6.552;2023-08-30T03:17:39;100691.69;;;11.82;100.00
76297;BME280;65104;52.994;6.552;2023-08-30T03:20:04;100694.25;;;11.80;100.00
76297;BME280;65104;52.994;6.552;2023-08-30T03:22:33;100693.34;;;11.77;100.00
76297;BME280;65104;52.994;6.552;2023-08-30T03:24:59;100689.84;;;11.72;100.00
76297;BME280;65104;52.994;6.552;2023-08-30T03:27:24;100692.38;;;11.69;100.00
76297;BME280;65104;52.994;6.552;2023-08-30T03:29:50;100683.72;;;11.62;100.00
76297;BME280;65104;52.994;6.552;2023-08-30T03:32:17;100678.53;;;11.59;100.00
76297;BME280;65104;52.994;6.552;2023-08-30T03:34:46;100676.78;;;11.56;100.00
76297;BME280;65104;52.994;6.552;2023-08-30T03:37:13;100672.47;;;11.52;100.00
76297;BME280;65104;52.994;6.552;2023-08-30T03:39:39;100675.88;;;11.51;100.00
76297;BME280;65104;52.994;6.552;2023-08-30T03:42:04;100678.34;;;11.45;100.00
76297;BME280;65104;52.994;6.552;2023-08-30T03:44:30;100684.38;;;11.44;100.00
76297;BME280;65104;52.994;6.552;2023-08-30T03:46:55;100681.75;;;11.43;100.00
76297;BME280;65104;52.994;6.552;2023-08-30T03:49:22;100675.72;;;11.39;100.00
76297;BME280;65104;52.994;6.552;2023-08-30T03:51:47;100677.38;;;11.34;100.00
76297;BME280;65104;52.994;6.552;2023-08-30T03:54:13;100672.22;;;11.34;100.00
76297;BME280;65104;52.994;6.552;2023-08-30T03:56:44;100662.75;;;11.32;100.00
76297;BME280;65104;52.994;6.552;2023-08-30T03:59:11;100656.69;;;11.25;100.00
76297;BME280;65104;52.994;6.552;2023-08-30T04:01:37;100660.97;;;11.27;100.00
76297;BME280;65104;52.994;6.552;2023-08-30T04:04:02;100662.72;;;11.27;100.00
76297;BME280;65104;52.994;6.552;2023-08-30T04:06:28;100649.88;;;11.27;100.00
76297;BME280;65104;52.994;6.552;2023-08-30T04:08:53;100641.28;;;11.28;100.00
76297;BME280;65104;52.994;6.552;2023-08-30T04:11:19;100637.91;;;11.32;100.00
76297;BME280;65104;52.994;6.552;2023-08-30T04:13:44;100645.66;;;11.34;100.00
76297;BME280;65104;52.994;6.552;2023-08-30T04:16:10;100643.13;;;11.38;100.00
76297;BME280;65104;52.994;6.552;2023-08-30T04:18:35;100638.00;;;11.40;100.00
76297;BME280;65104;52.994;6.552;2023-08-30T04:21:00;100638.06;;;11.46;100.00
76297;BME280;65104;52.994;6.552;2023-08-30T04:23:28;100630.38;;;11.44;100.00
76297;BME280;65104;52.994;6.552;2023-08-30T04:25:54;100637.31;;;11.53;100.00
76297;BME280;65104;52.994;6.552;2023-08-30T04:28:19;100637.38;;;11.57;100.00
76297;BME280;65104;52.994;6.552;2023-08-30T04:30:44;100631.38;;;11.58;100.00
76297;BME280;65104;52.994;6.552;2023-08-30T04:33:10;100634.00;;;11.61;100.00
76297;BME280;65104;52.994;6.552;2023-08-30T04:35:35;100637.44;;;11.65;100.00
76297;BME280;65104;52.994;6.552;2023-08-30T04:38:01;100617.72;;;11.65;100.00
76297;BME280;65104;52.994;6.552;2023-08-30T04:40:27;100623.75;;;11.68;100.00
76297;BME280;65104;52.994;6.552;2023-08-30T04:42:53;100613.47;;;11.68;100.00
76297;BME280;65104;52.994;6.552;2023-08-30T04:45:19;100598.03;;;11.68;100.00
76297;BME280;65104;52.994;6.552;2023-08-30T04:47:44;100605.75;;;11.68;100.00
76297;BME280;65104;52.994;6.552;2023-08-30T04:50:10;100606.63;;;11.68;100.00
76297;BME280;65104;52.994;6.552;2023-08-30T04:52:36;100608.31;;;11.66;100.00
76297;BME280;65104;52.994;6.552;2023-08-30T04:55:01;100604.91;;;11.69;100.00
76297;BME280;65104;52.994;6.552;2023-08-30T04:57:27;100618.66;;;11.71;100.00
76297;BME280;65104;52.994;6.552;2023-08-30T04:59:53;100611.78;;;11.73;100.00
76297;BME280;65104;52.994;6.552;2023-08-30T05:02:18;100602.38;;;11.73;100.00
76297;BME280;65104;52.994;6.552;2023-08-30T05:04:44;100597.31;;;11.76;100.00
76297;BME280;65104;52.994;6.552;2023-08-30T05:07:09;100587.00;;;11.75;100.00
76297;BME280;65104;52.994;6.552;2023-08-30T05:09:34;100590.44;;;11.77;100.00
76297;BME280;65104;52.994;6.552;2023-08-30T05:12:00;100580.13;;;11.75;100.00
76297;BME280;65104;52.994;6.552;2023-08-30T05:14:26;100587.91;;;11.80;100.00
76297;BME280;65104;52.994;6.552;2023-08-30T05:16:52;100598.22;;;11.80;100.00
76297;BME280;65104;52.994;6.552;2023-08-30T05:19:17;100588.75;;;11.79;100.00
76297;BME280;65104;52.994;6.552;2023-08-30T05:21:43;100594.81;;;11.84;100.00
76297;BME280;65104;52.994;6.552;2023-08-30T05:24:09;100593.91;;;11.82;100.00
76297;BME280;65104;52.994;6.552;2023-08-30T05:26:35;100593.09;;;11.84;100.00
76297;BME280;65104;52.994;6.552;2023-08-30T05:29:00;100592.31;;;11.90;100.00
76297;BME280;65104;52.994;6.552;2023-08-30T05:31:26;100592.31;;;11.90;100.00
76297;BME280;65104;52.994;6.552;2023-08-30T05:33:51;100593.13;;;11.90;100.00
76297;BME280;65104;52.994;6.552;2023-08-30T05:36:17;100582.06;;;11.96;100.00
76297;BME280;65104;52.994;6.552;2023-08-30T05:38:42;100587.25;;;12.02;100.00
76297;BME280;65104;52.994;6.552;2023-08-30T05:41:09;100581.31;;;12.08;100.00
76297;BME280;65104;52.994;6.552;2023-08-30T05:43:34;100572.78;;;12.15;100.00
76297;BME280;65104;52.994;6.552;2023-08-30T05:46:00;100563.38;;;12.21;100.00
76297;BME280;65104;52.994;6.552;2023-08-30T05:48:30;100568.59;;;12.29;100.00
76297;BME280;65104;52.994;6.552;2023-08-30T05:50:55;100564.34;;;12.32;100.00
76297;BME280;65104;52.994;6.552;2023-08-30T05:53:21;100560.91;;;12.33;100.00
76297;BME280;65104;52.994;6.552;2023-08-30T05:55:46;100566.13;;;12.46;100.00
76297;BME280;65104;52.994;6.552;2023-08-30T05:58:12;100565.31;;;12.50;100.00
76297;BME280;65104;52.994;6.552;2023-08-30T06:00:39;100559.31;;;12.54;100.00
76297;BME280;65104;52.994;6.552;2023-08-30T06:03:04;100553.34;;;12.58;100.00
76297;BME280;65104;52.994;6.552;2023-08-30T06:05:29;100555.94;;;12.62;100.00
76297;BME280;65104;52.994;6.552;2023-08-30T06:07:55;100556.81;;;12.66;100.00
76297;BME280;65104;52.994;6.552;2023-08-30T06:10:20;100555.13;;;12.69;100.00
76297;BME280;65104;52.994;6.552;2023-08-30T06:12:46;100552.56;;;12.72;100.00
76297;BME280;65104;52.994;6.552;2023-08-30T06:15:11;100556.84;;;12.72;100.00
76297;BME280;65104;52.994;6.552;2023-08-30T06:17:36;100555.16;;;12.74;100.00
76297;BME280;65104;52.994;6.552;2023-08-30T06:20:02;100556.03;;;12.81;100.00
76297;BME280;65104;52.994;6.552;2023-08-30T06:22:28;100547.47;;;12.85;100.00
76297;BME280;65104;52.994;6.552;2023-08-30T06:24:53;100539.78;;;12.88;100.00
76297;BME280;65104;52.994;6.552;2023-08-30T06:27:18;100537.19;;;12.91;100.00
76297;BME280;65104;52.994;6.552;2023-08-30T06:29:44;100534.63;;;12.92;100.00
76297;BME280;65104;52.994;6.552;2023-08-30T06:32:09;100539.78;;;12.94;100.00
76297;BME280;65104;52.994;6.552;2023-08-30T06:34:34;100538.09;;;13.00;100.00
76297;BME280;65104;52.994;6.552;2023-08-30T06:37:00;100543.25;;;13.06;100.00
76297;BME280;65104;52.994;6.552;2023-08-30T06:39:25;100530.38;;;13.08;100.00
76297;BME280;65104;52.994;6.552;2023-08-30T06:41:50;100529.59;;;13.13;100.00
76297;BME280;65104;52.994;6.552;2023-08-30T06:44:16;100528.75;;;13.14;100.00
76297;BME280;65104;52.994;6.552;2023-08-30T06:46:42;100525.28;;;13.14;100.00
76297;BME280;65104;52.994;6.552;2023-08-30T06:49:08;100533.03;;;13.20;100.00
76297;BME280;65104;52.994;6.552;2023-08-30T06:51:34;100544.25;;;13.24;100.00
76297;BME280;65104;52.994;6.552;2023-08-30T06:54:00;100525.31;;;13.26;100.00
76297;BME280;65104;52.994;6.552;2023-08-30T06:56:26;100526.19;;;13.27;100.00
76297;BME280;65104;52.994;6.552;2023-08-30T06:58:52;100526.19;;;13.30;100.00
76297;BME280;65104;52.994;6.552;2023-08-30T07:01:17;100528.78;;;13.33;100.00
76297;BME280;65104;52.994;6.552;2023-08-30T07:03:42;100527.94;;;13.40;100.00
76297;BME280;65104;52.994;6.552;2023-08-30T07:06:09;100523.66;;;13.42;100.00
76297;BME280;65104;52.994;6.552;2023-08-30T07:08:34;100526.25;;;13.49;100.00
76297;BME280;65104;52.994;6.552;2023-08-30T07:11:00;100513.34;;;13.56;100.00
76297;BME280;65104;52.994;6.552;2023-08-30T07:13:25;100512.50;;;13.58;100.00
76297;BME280;65104;52.994;6.552;2023-08-30T07:15:51;100518.50;;;13.65;100.00
76297;BME280;65104;52.994;6.552;2023-08-30T07:18:16;100521.94;;;13.62;100.00
76297;BME280;65104;52.994;6.552;2023-08-30T07:20:41;100514.22;;;13.65;100.00
76297;BME280;65104;52.994;6.552;2023-08-30T07:23:07;100513.38;;;13.75;100.00
76297;BME280;65104;52.994;6.552;2023-08-30T07:25:32;100514.25;;;13.86;100.00
76297;BME280;65104;52.994;6.552;2023-08-30T07:27:59;100505.59;;;13.97;100.00
76297;BME280;65104;52.994;6.552;2023-08-30T07:30:25;100500.44;;;14.09;100.00
76297;BME280;65104;52.994;6.552;2023-08-30T07:32:50;100501.28;;;14.17;100.00
76297;BME280;65104;52.994;6.552;2023-08-30T07:35:16;100494.41;;;14.28;100.00
76297;BME280;65104;52.994;6.552;2023-08-30T07:37:41;100495.25;;;14.35;100.00
76297;BME280;65104;52.994;6.552;2023-08-30T07:40:07;100490.94;;;14.49;100.00
76297;BME280;65104;52.994;6.552;2023-08-30T07:42:33;100484.88;;;14.63;100.00
76297;BME280;65104;52.994;6.552;2023-08-30T07:44:59;100478.78;;;14.74;100.00
76297;BME280;65104;52.994;6.552;2023-08-30T07:47:24;100485.63;;;14.87;100.00
76297;BME280;65104;52.994;6.552;2023-08-30T07:49:49;100482.06;;;15.08;100.00
76297;BME280;65104;52.994;6.552;2023-08-30T07:52:15;100474.28;;;15.12;100.00
76297;BME280;65104;52.994;6.552;2023-08-30T07:54:41;100476.84;;;15.18;100.00
76297;BME280;65104;52.994;6.552;2023-08-30T07:57:06;100472.53;;;15.17;100.00
76297;BME280;65104;52.994;6.552;2023-08-30T07:59:33;100481.13;;;15.22;100.00
76297;BME280;65104;52.994;6.552;2023-08-30T08:01:59;100476.78;;;15.27;100.00
76297;BME280;65104;52.994;6.552;2023-08-30T08:04:24;100489.69;;;15.35;100.00
76297;BME280;65104;52.994;6.552;2023-08-30T08:06:49;100489.69;;;15.35;100.00
76297;BME280;65104;52.994;6.552;2023-08-30T08:09:15;100491.38;;;15.37;100.00
76297;BME280;65104;52.994;6.552;2023-08-30T08:11:40;100481.91;;;15.38;100.00
76297;BME280;65104;52.994;6.552;2023-08-30T08:14:11;100491.28;;;15.50;100.00
76297;BME280;65104;52.994;6.552;2023-08-30T08:16:37;100491.28;;;15.50;100.00
76297;BME280;65104;52.994;6.552;2023-08-30T08:19:02;100487.84;;;15.54;100.00
76297;BME280;65104;52.994;6.552;2023-08-30T08:21:28;100480.91;;;15.62;100.00
76297;BME280;65104;52.994;6.552;2023-08-30T08:23:53;100482.56;;;15.66;100.00
76297;BME280;65104;52.994;6.552;2023-08-30T08:26:18;100476.59;;;15.62;100.00
76297;BME280;65104;52.994;6.552;2023-08-30T08:28:44;100477.50;;;15.57;100.00
76297;BME280;65104;52.994;6.552;2023-08-30T08:31:09;100478.38;;;15.56;100.00
76297;BME280;65104;52.994;6.552;2023-08-30T08:33:35;100482.56;;;15.66;100.00
76297;BME280;65104;52.994;6.552;2023-08-30T08:36:00;100490.25;;;15.76;100.00
76297;BME280;65104;52.994;6.552;2023-08-30T08:38:26;100485.06;;;15.83;100.00
76297;BME280;65104;52.994;6.552;2023-08-30T08:41:01;100483.19;;;15.94;100.00
76297;BME280;65104;52.994;6.552;2023-08-30T08:43:27;100481.44;;;15.99;100.00
76297;BME280;65104;52.994;6.552;2023-08-30T08:45:55;100484.94;;;15.93;100.00
76297;BME280;65104;52.994;6.552;2023-08-30T08:48:25;100488.44;;;15.89;100.00
76297;BME280;65104;52.994;6.552;2023-08-30T08:50:54;100487.59;;;15.84;100.00
76297;BME280;65104;52.994;6.552;2023-08-30T08:53:21;100493.69;;;15.80;100.00
76297;BME280;65104;52.994;6.552;2023-08-30T08:55:47;100492.84;;;15.75;100.00
76297;BME280;65104;52.994;6.552;2023-08-30T08:58:14;100496.38;;;15.68;100.00
76297;BME280;65104;52.994;6.552;2023-08-30T09:00:41;100505.00;;;15.70;100.00
76297;BME280;65104;52.994;6.552;2023-08-30T09:03:08;100508.56;;;15.55;100.00
76297;BME280;65104;52.994;6.552;2023-08-30T09:05:35;100505.94;;;15.52;100.00
76297;BME280;65104;52.994;6.552;2023-08-30T09:08:02;100511.13;;;15.51;100.00
76297;BME280;65104;52.994;6.552;2023-08-30T09:10:28;100507.72;;;15.43;100.00
76297;BME280;65104;52.994;6.552;2023-08-30T09:12:54;100500.00;;;15.38;100.00
76297;BME280;65104;52.994;6.552;2023-08-30T09:15:19;100513.81;;;15.32;100.00
76297;BME280;65104;52.994;6.552;2023-08-30T09:17:44;100504.38;;;15.27;100.00
76297;BME280;65104;52.994;6.552;2023-08-30T09:20:12;100505.25;;;15.24;100.00
76297;BME280;65104;52.994;6.552;2023-08-30T09:22:39;100506.97;;;15.22;100.00
76297;BME280;65104;52.994;6.552;2023-08-30T09:25:06;100509.63;;;15.15;100.00
76297;BME280;65104;52.994;6.552;2023-08-30T09:27:33;100506.22;;;15.10;100.00
76297;BME280;65104;52.994;6.552;2023-08-30T09:29:59;100502.81;;;15.01;100.00
76297;BME280;65104;52.994;6.552;2023-08-30T09:32:24;100518.31;;;15.01;100.00
76297;BME280;65104;52.994;6.552;2023-08-30T09:34:50;100520.09;;;14.92;100.00
76297;BME280;65104;52.994;6.552;2023-08-30T09:37:23;100513.22;;;14.82;100.00
76297;BME280;65104;52.994;6.552;2023-08-30T09:39:50;100517.53;;;14.80;100.00
76297;BME280;65104;52.994;6.552;2023-08-30T09:42:16;100515.88;;;14.67;100.00
76297;BME280;65104;52.994;6.552;2023-08-30T09:44:43;100509.84;;;14.58;100.00
76297;BME280;65104;52.994;6.552;2023-08-30T09:47:08;100517.63;;;14.55;100.00
76297;BME280;65104;52.994;6.552;2023-08-30T09:49:42;100521.06;;;14.51;100.00
76297;BME280;65104;52.994;6.552;2023-08-30T09:52:08;100517.63;;;14.51;100.00
76297;BME280;65104;52.994;6.552;2023-08-30T09:54:34;100519.34;;;14.53;100.00
76297;BME280;65104;52.994;6.552;2023-08-30T09:57:01;100525.38;;;14.52;100.00
76297;BME280;65104;52.994;6.552;2023-08-30T09:59:27;100519.34;;;14.58;100.00
76297;BME280;65104;52.994;6.552;2023-08-30T10:01:54;100521.00;;;14.68;100.00
76297;BME280;65104;52.994;6.552;2023-08-30T10:04:20;100518.34;;;14.92;100.00
76297;BME280;65104;52.994;6.552;2023-08-30T10:06:46;100515.59;;;15.23;100.00
76297;BME280;65104;52.994;6.552;2023-08-30T10:09:12;100511.19;;;15.43;100.00
76297;BME280;65104;52.994;6.552;2023-08-30T10:11:39;100502.56;;;15.43;100.00
76297;BME280;65104;52.994;6.552;2023-08-30T10:14:08;100499.03;;;15.51;100.00
76297;BME280;65104;52.994;6.552;2023-08-30T10:16:48;100497.28;;;15.65;100.00
76297;BME280;65104;52.994;6.552;2023-08-30T10:19:29;100492.84;;;15.75;100.00
76297;BME280;65104;52.994;6.552;2023-08-30T10:24:26;100479.84;;;15.84;100.00
76297;BME280;65104;52.994;6.552;2023-08-30T10:26:54;100477.91;;;16.06;100.00
76297;BME280;65104;52.994;6.552;2023-08-30T10:29:21;100482.91;;;16.26;100.00
76297;BME280;65104;52.994;6.552;2023-08-30T10:31:49;100471.50;;;16.42;100.00
76297;BME280;65104;52.994;6.552;2023-08-30T10:34:15;100460.38;;;16.32;100.00
76297;BME280;65104;52.994;6.552;2023-08-30T10:36:44;100458.66;;;16.30;100.00
76297;BME280;65104;52.994;6.552;2023-08-30T10:39:14;100444.00;;;16.29;100.00
76297;BME280;65104;52.994;6.552;2023-08-30T10:41:55;100453.44;;;16.36;100.00
76297;BME280;65104;52.994;6.552;2023-08-30T10:44:22;100457.00;;;16.26;100.00
76297;BME280;65104;52.994;6.552;2023-08-30T10:46:52;100456.19;;;16.21;100.00
76297;BME280;65104;52.994;6.552;2023-08-30T10:49:19;100450.19;;;16.19;100.00
76297;BME280;65104;52.994;6.552;2023-08-30T10:51:44;100445.03;;;16.16;100.00
76297;BME280;65104;52.994;6.552;2023-08-30T10:54:11;100445.88;;;16.18;100.00
76297;BME280;65104;52.994;6.552;2023-08-30T10:56:56;100456.38;;;16.02;100.00
76297;BME280;65104;52.994;6.552;2023-08-30T10:59:27;100447.88;;;15.88;100.00
76297;BME280;65104;52.994;6.552;2023-08-30T11:01:53;100451.44;;;15.75;100.00
76297;BME280;65104;52.994;6.552;2023-08-30T11:04:19;100448.16;;;15.52;100.00
76297;BME280;65104;52.994;6.552;2023-08-30T11:06:45;100444.78;;;15.44;100.00
76297;BME280;65104;52.994;6.552;2023-08-30T11:09:30;100451.69;;;15.42;100.00
76297;BME280;65104;52.994;6.552;2023-08-30T11:11:55;100450.81;;;15.41;100.00
76297;BME280;65104;52.994;6.552;2023-08-30T11:14:21;100445.75;;;15.29;100.00
76297;BME280;65104;52.994;6.552;2023-08-30T11:16:47;100439.72;;;15.28;100.00
76297;BME280;65104;52.994;6.552;2023-08-30T11:19:12;100442.28;;;15.30;100.00
76297;BME280;65104;52.994;6.552;2023-08-30T11:21:40;100441.41;;;15.32;100.00
76297;BME280;65104;52.994;6.552;2023-08-30T11:24:07;100438.84;;;15.29;100.00
76297;BME280;65104;52.994;6.552;2023-08-30T11:26:33;100437.13;;;15.28;100.00
76297;BME280;65104;52.994;6.552;2023-08-30T11:29:07;100437.13;;;15.25;100.00
76297;BME280;65104;52.994;6.552;2023-08-30T11:31:32;100438.00;;;15.21;100.00
76297;BME280;65104;52.994;6.552;2023-08-30T11:33:59;100432.88;;;15.15;100.00
76297;BME280;65104;52.994;6.552;2023-08-30T11:36:30;100438.06;;;15.15;100.00
76297;BME280;65104;52.994;6.552;2023-08-30T11:38:56;100441.53;;;15.13;100.00
76297;BME280;65104;52.994;6.552;2023-08-30T11:41:22;100438.16;;;15.03;100.00
76297;BME280;65104;52.994;6.552;2023-08-30T11:43:48;100433.00;;;15.03;100.00
76297;BME280;65104;52.994;6.552;2023-08-30T11:46:14;100429.53;;;15.01;100.00
76297;BME280;65104;52.994;6.552;2023-08-30T11:48:40;100438.16;;;14.95;100.00
76297;BME280;65104;52.994;6.552;2023-08-30T11:51:07;100439.03;;;14.97;100.00
76297;BME280;65104;52.994;6.552;2023-08-30T11:53:33;100438.16;;;15.00;100.00
76297;BME280;65104;52.994;6.552;2023-08-30T11:56:00;100433.00;;;15.00;100.00
76297;BME280;65104;52.994;6.552;2023-08-30T11:58:25;100430.41;;;14.95;100.00
76297;BME280;65104;52.994;6.552;2023-08-30T12:00:54;100429.53;;;14.98;100.00
76297;BME280;65104;52.994;6.552;2023-08-30T12:03:20;100422.69;;;14.92;100.00
76297;BME280;65104;52.994;6.552;2023-08-30T12:05:50;100433.09;;;14.85;100.00
76297;BME280;65104;52.994;6.552;2023-08-30T12:08:28;100423.63;;;14.78;100.00
76297;BME280;65104;52.994;6.552;2023-08-30T12:10:54;100427.09;;;14.72;100.00
76297;BME280;65104;52.994;6.552;2023-08-30T12:13:28;100431.41;;;14.72;100.00
76297;BME280;65104;52.994;6.552;2023-08-30T12:15:58;100422.81;;;14.73;100.00
76297;BME280;65104;52.994;6.552;2023-08-30T12:18:28;100426.28;;;14.67;100.00
76297;BME280;65104;52.994;6.552;2023-08-30T12:20:54;100423.66;;;14.76;100.00
76297;BME280;65104;52.994;6.552;2023-08-30T12:23:21;100422.75;;;14.80;100.00
76297;BME280;65104;52.994;6.552;2023-08-30T12:26:00;100425.34;;;14.85;100.00
76297;BME280;65104;52.994;6.552;2023-08-30T12:28:28;100424.47;;;14.83;100.00
76297;BME280;65104;52.994;6.552;2023-08-30T12:30:55;100421.84;;;14.87;100.00
76297;BME280;65104;52.994;6.552;2023-08-30T12:33:20;100422.72;;;14.88;100.00
76297;BME280;65104;52.994;6.552;2023-08-30T12:35:46;100423.56;;;14.91;100.00
76297;BME280;65104;52.994;6.552;2023-08-30T12:38:12;100414.88;;;15.01;100.00
76297;BME280;65104;52.994;6.552;2023-08-30T12:40:43;100402.72;;;15.16;100.00
76297;BME280;65104;52.994;6.552;2023-08-30T12:43:08;100407.81;;;15.28;100.00